createdAt,value
2024-02-16T00:00:30.083Z,8.13
2024-02-16T00:03:38.182Z,8.15
2024-02-16T00:06:49.377Z,8.16
2024-02-16T00:09:57.775Z,8.17
2024-02-16T00:13:05.019Z,8.10
2024-02-16T00:16:13.185Z,8.14
2024-02-16T00:19:20.532Z,8.16
2024-02-16T00:22:31.438Z,8.13
2024-02-16T00:25:39.613Z,8.10
2024-02-16T00:28:48.018Z,8.04
2024-02-16T00:31:58.160Z,8.00
2024-02-16T00:35:06.645Z,7.97
2024-02-16T00:38:16.538Z,7.94
2024-02-16T00:41:27.536Z,7.81
2024-02-16T00:44:34.742Z,7.93
2024-02-16T00:47:42.885Z,7.89
2024-02-16T00:50:50.455Z,7.81
2024-02-16T00:54:01.196Z,7.74
2024-02-16T00:57:09.257Z,7.65
2024-02-16T01:00:21.101Z,7.61
2024-02-16T01:03:28.768Z,7.57
2024-02-16T01:06:36.973Z,7.62
2024-02-16T01:09:46.853Z,7.63
2024-02-16T01:12:57.395Z,7.59
2024-02-16T01:16:05.026Z,7.55
2024-02-16T01:19:13.238Z,7.50
2024-02-16T01:22:20.537Z,7.39
2024-02-16T01:25:31.244Z,7.16
2024-02-16T01:28:38.460Z,7.01
2024-02-16T01:31:46.578Z,6.86
2024-02-16T01:34:53.902Z,6.69
2024-02-16T01:38:02.826Z,6.55
2024-02-16T01:41:14.166Z,6.46
2024-02-16T01:44:22.474Z,6.26
2024-02-16T01:47:29.903Z,6.05
2024-02-16T01:50:38.524Z,5.91
2024-02-16T01:53:46.459Z,5.65
2024-02-16T01:56:59.357Z,5.73
2024-02-16T02:00:09.232Z,5.53
2024-02-16T02:03:19.714Z,5.44
2024-02-16T02:06:27.085Z,5.39
2024-02-16T02:09:35.212Z,5.27
2024-02-16T02:12:46.067Z,5.10
2024-02-16T02:15:54.691Z,5.02
2024-02-16T02:19:02.213Z,4.99
2024-02-16T02:22:19.376Z,4.89
2024-02-16T02:25:28.367Z,4.86
2024-02-16T02:28:36.534Z,4.91
2024-02-16T02:31:44.235Z,4.86
2024-02-16T02:34:52.408Z,4.89
2024-02-16T02:38:02.398Z,4.82
2024-02-16T02:41:10.523Z,4.87
2024-02-16T02:44:17.990Z,4.98
2024-02-16T02:47:26.112Z,5.07
2024-02-16T02:50:33.446Z,5.11
2024-02-16T02:53:44.854Z,5.01
2024-02-16T02:56:52.234Z,4.93
2024-02-16T03:00:12.884Z,4.97
2024-02-16T03:03:21.619Z,4.80
2024-02-16T03:06:29.956Z,4.57
2024-02-16T03:09:39.941Z,4.42
2024-02-16T03:12:50.590Z,4.27
2024-02-16T03:15:58.030Z,4.22
2024-02-16T03:19:10.535Z,4.21
2024-02-16T03:22:17.920Z,4.11
2024-02-16T03:25:28.648Z,3.92
2024-02-16T03:28:35.898Z,4.02
2024-02-16T03:31:44.686Z,4.03
2024-02-16T03:34:52.083Z,3.98
2024-02-16T03:38:00.398Z,3.92
2024-02-16T03:41:10.311Z,3.90
2024-02-16T03:44:18.563Z,3.91
2024-02-16T03:47:25.909Z,3.94
2024-02-16T03:50:34.027Z,3.92
2024-02-16T03:53:41.278Z,3.88
2024-02-16T03:56:51.990Z,3.89
2024-02-16T03:59:59.180Z,3.94
2024-02-16T04:03:07.649Z,3.85
2024-02-16T04:06:14.964Z,3.83
2024-02-16T04:09:23.066Z,3.78
2024-02-16T04:12:32.959Z,3.77
2024-02-16T04:15:41.225Z,3.71
2024-02-16T04:18:48.643Z,3.69
2024-02-16T04:21:59.043Z,3.63
2024-02-16T04:25:10.329Z,3.53
2024-02-16T04:28:21.027Z,3.53
2024-02-16T04:31:28.311Z,3.51
2024-02-16T04:34:36.467Z,3.49
2024-02-16T04:37:43.778Z,3.49
2024-02-16T04:40:51.894Z,3.42
2024-02-16T04:44:01.806Z,3.37
2024-02-16T04:47:10.708Z,3.27
2024-02-16T04:50:18.009Z,3.23
2024-02-16T04:53:26.080Z,3.22
2024-02-16T04:56:33.239Z,3.16
2024-02-16T04:59:43.912Z,3.11
2024-02-16T05:02:51.407Z,3.11
2024-02-16T05:05:59.532Z,3.09
2024-02-16T05:09:07.022Z,3.06
2024-02-16T05:12:15.054Z,3.01
2024-02-16T05:15:24.921Z,2.98
2024-02-16T05:18:33.164Z,3.01
2024-02-16T05:21:40.505Z,2.97
2024-02-16T05:24:49.118Z,2.91
2024-02-16T05:27:56.304Z,2.94
2024-02-16T05:31:20.052Z,2.91
2024-02-16T05:34:27.586Z,2.89
2024-02-16T05:37:36.444Z,2.85
2024-02-16T05:40:55.120Z,2.91
2024-02-16T05:44:03.159Z,2.92
2024-02-16T05:47:13.241Z,2.88
2024-02-16T05:50:22.012Z,2.84
2024-02-16T05:53:30.385Z,2.88
2024-02-16T05:56:40.527Z,2.84
2024-02-16T05:59:48.837Z,2.86
2024-02-16T06:03:00.644Z,2.86
2024-02-16T06:06:09.724Z,2.91
2024-02-16T06:09:17.840Z,2.88
2024-02-16T06:12:25.192Z,2.92
2024-02-16T06:15:33.475Z,2.86
2024-02-16T06:18:43.720Z,2.91
2024-02-16T06:21:51.843Z,2.89
2024-02-16T06:24:59.168Z,2.87
2024-02-16T06:28:08.213Z,2.83
2024-02-16T06:31:16.834Z,2.80
2024-02-16T06:34:28.085Z,2.79
2024-02-16T06:37:35.440Z,2.84
2024-02-16T06:40:43.521Z,2.90
2024-02-16T06:43:50.997Z,2.89
2024-02-16T06:46:59.552Z,2.94
2024-02-16T06:50:10.875Z,3.03
2024-02-16T06:53:19.158Z,3.09
2024-02-16T06:56:26.455Z,3.22
2024-02-16T06:59:34.571Z,3.36
2024-02-16T07:02:42.833Z,3.50
2024-02-16T07:05:53.778Z,3.77
2024-02-16T07:09:01.207Z,4.00
2024-02-16T07:12:13.471Z,4.39
2024-02-16T07:15:20.972Z,4.88
2024-02-16T07:18:29.384Z,5.25
2024-02-16T07:21:39.572Z,5.82
2024-02-16T07:24:47.874Z,6.56
2024-02-16T07:27:55.190Z,7.10
2024-02-16T07:31:03.467Z,7.83
2024-02-16T07:34:13.205Z,8.30
2024-02-16T07:37:23.935Z,8.49
2024-02-16T07:40:32.261Z,9.01
2024-02-16T07:43:40.262Z,9.46
2024-02-16T07:46:47.744Z,9.79
2024-02-16T07:49:55.973Z,10.21
2024-02-16T07:53:06.049Z,10.42
2024-02-16T07:56:14.141Z,10.43
2024-02-16T07:59:21.963Z,10.50
2024-02-16T08:02:30.340Z,10.49
2024-02-16T08:05:37.640Z,10.60
2024-02-16T08:08:48.429Z,10.39
2024-02-16T08:11:55.843Z,10.78
2024-02-16T08:15:05.386Z,10.91
2024-02-16T08:18:13.474Z,10.94
2024-02-16T08:21:22.528Z,10.84
2024-02-16T08:24:32.624Z,10.88
2024-02-16T08:27:41.384Z,10.78
2024-02-16T08:30:48.868Z,11.48
2024-02-16T08:33:57.462Z,11.66
2024-02-16T08:37:05.170Z,12.02
2024-02-16T08:40:18.442Z,12.50
2024-02-16T08:43:25.773Z,12.33
2024-02-16T08:46:33.917Z,12.79
2024-02-16T08:49:41.328Z,13.72
2024-02-16T08:52:49.447Z,14.38
2024-02-16T08:55:59.358Z,14.99
2024-02-16T08:59:07.441Z,15.54
2024-02-16T09:02:14.765Z,15.11
2024-02-16T09:05:23.067Z,14.59
2024-02-16T09:08:34.326Z,14.29
2024-02-16T09:11:45.023Z,14.32
2024-02-16T09:14:52.398Z,14.15
2024-02-16T09:18:00.650Z,14.68
2024-02-16T09:21:08.678Z,14.38
2024-02-16T09:24:19.500Z,14.26
2024-02-16T09:27:29.672Z,15.14
2024-02-16T09:30:37.807Z,15.26
2024-02-16T09:33:45.349Z,15.16
2024-02-16T09:36:53.452Z,15.24
2024-02-16T09:40:00.754Z,14.78
2024-02-16T09:43:11.541Z,14.17
2024-02-16T09:46:22.061Z,14.06
2024-02-16T09:49:38.702Z,15.12
2024-02-16T09:52:54.895Z,15.27
2024-02-16T09:56:03.119Z,15.53
2024-02-16T09:59:13.930Z,16.27
2024-02-16T10:02:22.127Z,16.21
2024-02-16T10:05:32.206Z,15.77
2024-02-16T10:08:52.830Z,15.88
2024-02-16T10:12:00.490Z,15.76
2024-02-16T10:15:13.254Z,16.08
2024-02-16T10:18:20.578Z,16.12
2024-02-16T10:21:30.781Z,16.27
2024-02-16T10:24:40.648Z,16.16
2024-02-16T10:27:56.126Z,14.93
2024-02-16T10:31:06.985Z,15.04
2024-02-16T10:34:18.253Z,15.22
2024-02-16T10:37:27.549Z,15.82
2024-02-16T10:40:40.035Z,15.59
2024-02-16T10:43:52.679Z,15.45
2024-02-16T10:47:04.031Z,16.09
2024-02-16T10:50:13.059Z,16.72
2024-02-16T10:53:31.706Z,17.29
2024-02-16T10:56:41.051Z,16.98
2024-02-16T10:59:51.879Z,15.99
2024-02-16T11:03:06.055Z,16.31
2024-02-16T11:06:23.147Z,17.07
2024-02-16T11:09:35.189Z,16.18
2024-02-16T11:12:50.901Z,16.66
2024-02-16T11:16:04.129Z,16.99
2024-02-16T11:19:18.190Z,16.73
2024-02-16T11:22:25.670Z,17.06
2024-02-16T11:25:37.879Z,17.19
2024-02-16T11:28:46.821Z,17.06
2024-02-16T11:31:55.149Z,17.11
2024-02-16T11:35:12.831Z,16.76
2024-02-16T11:38:20.985Z,16.72
2024-02-16T11:41:28.277Z,17.16
2024-02-16T11:44:41.302Z,17.12
2024-02-16T11:47:48.555Z,17.25
2024-02-16T11:51:08.311Z,16.94
2024-02-16T11:54:17.462Z,16.68
2024-02-16T11:57:26.650Z,16.95
2024-02-16T12:00:34.529Z,16.78
2024-02-16T12:03:47.320Z,16.67
2024-02-16T12:07:04.905Z,16.73
2024-02-16T12:10:15.448Z,16.34
2024-02-16T12:13:24.396Z,16.41
2024-02-16T12:16:33.474Z,16.61
2024-02-16T12:19:40.860Z,16.29
2024-02-16T12:22:51.585Z,16.46
2024-02-16T12:25:58.803Z,16.45
2024-02-16T12:29:07.559Z,16.57
2024-02-16T12:32:20.086Z,16.31
2024-02-16T12:35:28.643Z,16.12
2024-02-16T12:38:38.400Z,16.20
2024-02-16T12:41:46.565Z,16.00
2024-02-16T12:44:53.855Z,16.20
2024-02-16T12:48:02.038Z,16.08
2024-02-16T12:51:09.722Z,15.98
2024-02-16T12:54:20.631Z,15.51
2024-02-16T12:57:27.949Z,15.36
2024-02-16T13:00:36.211Z,15.30
2024-02-16T13:03:43.740Z,15.31
2024-02-16T13:06:54.467Z,15.13
2024-02-16T13:10:04.596Z,15.10
2024-02-16T13:13:12.680Z,14.81
2024-02-16T13:16:20.140Z,14.59
2024-02-16T13:19:28.464Z,14.49
2024-02-16T13:22:35.753Z,14.45
2024-02-16T13:25:46.432Z,14.68
2024-02-16T13:28:55.880Z,14.58
2024-02-16T13:32:05.262Z,14.51
2024-02-16T13:35:13.808Z,14.36
2024-02-16T13:38:22.697Z,14.44
2024-02-16T13:41:32.634Z,14.44
2024-02-16T13:44:41.375Z,14.41
2024-02-16T13:47:48.629Z,14.24
2024-02-16T13:50:59.090Z,14.36
2024-02-16T13:54:06.539Z,14.18
2024-02-16T13:57:17.262Z,14.07
2024-02-16T14:00:24.734Z,14.01
2024-02-16T14:03:33.189Z,13.97
2024-02-16T14:06:40.608Z,14.11
2024-02-16T14:09:48.754Z,14.05
2024-02-16T14:12:58.624Z,14.14
2024-02-16T14:16:06.791Z,14.06
2024-02-16T14:19:14.088Z,13.90
2024-02-16T14:22:22.352Z,13.94
2024-02-16T14:25:29.642Z,13.93
2024-02-16T14:28:40.567Z,13.89
2024-02-16T14:31:47.672Z,13.88
2024-02-16T14:34:55.847Z,13.86
2024-02-16T14:38:03.150Z,13.74
2024-02-16T14:41:11.107Z,13.79
2024-02-16T14:44:21.862Z,13.71
2024-02-16T14:47:29.909Z,13.71
2024-02-16T14:50:37.870Z,13.74
2024-02-16T14:53:45.917Z,13.75
2024-02-16T14:56:55.484Z,13.79
2024-02-16T15:00:07.299Z,13.87
2024-02-16T15:03:15.051Z,13.78
2024-02-16T15:06:23.129Z,13.80
2024-02-16T15:09:30.600Z,13.75
2024-02-16T15:12:41.482Z,13.68
2024-02-16T15:15:51.531Z,13.64
2024-02-16T15:18:59.741Z,13.63
2024-02-16T15:22:07.971Z,13.60
2024-02-16T15:25:16.152Z,13.51
2024-02-16T15:28:23.309Z,13.42
2024-02-16T15:31:34.519Z,13.36
2024-02-16T15:34:45.160Z,13.23
2024-02-16T15:37:53.396Z,13.08
2024-02-16T15:41:00.616Z,12.99
2024-02-16T15:44:08.990Z,12.93
2024-02-16T15:47:18.795Z,12.85
2024-02-16T15:50:28.422Z,12.78
2024-02-16T15:53:35.604Z,12.67
2024-02-16T15:56:43.712Z,12.57
2024-02-16T15:59:51.195Z,12.48
2024-02-16T16:03:02.537Z,12.37
2024-02-16T16:06:10.386Z,12.27
2024-02-16T16:09:19.226Z,12.14
2024-02-16T16:12:27.251Z,12.06
2024-02-16T16:15:35.297Z,11.98
2024-02-16T16:18:45.334Z,11.89
2024-02-16T16:21:54.867Z,11.78
2024-02-16T16:25:02.051Z,11.70
2024-02-16T16:28:10.713Z,11.63
2024-02-16T16:31:18.344Z,11.58
2024-02-16T16:34:29.410Z,11.51
2024-02-16T16:37:37.605Z,11.48
2024-02-16T16:40:45.561Z,11.41
2024-02-16T16:43:52.868Z,11.36
2024-02-16T16:47:00.878Z,11.25
2024-02-16T16:50:12.025Z,11.21
2024-02-16T16:53:20.378Z,11.11
2024-02-16T16:56:28.722Z,11.06
2024-02-16T16:59:37.450Z,10.98
2024-02-16T17:02:44.747Z,10.95
2024-02-16T17:05:55.528Z,10.91
2024-02-16T17:09:02.869Z,10.88
2024-02-16T17:12:12.378Z,10.78
2024-02-16T17:15:23.791Z,10.68
2024-02-16T17:18:35.733Z,10.66
2024-02-16T17:21:45.911Z,10.65
2024-02-16T17:24:54.205Z,10.61
2024-02-16T17:28:01.424Z,10.55
2024-02-16T17:31:09.514Z,10.54
2024-02-16T17:34:16.886Z,10.50
2024-02-16T17:37:27.719Z,10.50
2024-02-16T17:40:35.042Z,10.48
2024-02-16T17:43:46.210Z,10.44
2024-02-16T17:46:53.801Z,10.44
2024-02-16T17:50:01.992Z,10.41
2024-02-16T17:53:11.964Z,10.38
2024-02-16T17:56:20.370Z,10.36
2024-02-16T17:59:28.589Z,10.34
2024-02-16T18:02:41.086Z,10.31
2024-02-16T18:05:50.487Z,10.28
2024-02-16T18:09:01.794Z,10.21
2024-02-16T18:12:10.533Z,10.14
2024-02-16T18:15:19.957Z,10.08
2024-02-16T18:18:28.166Z,9.98
2024-02-16T18:21:37.026Z,9.86
2024-02-16T18:24:46.928Z,9.79
2024-02-16T18:27:55.058Z,9.70
2024-02-16T18:31:02.293Z,9.46
2024-02-16T18:34:10.365Z,9.53
2024-02-16T18:37:17.649Z,9.53
2024-02-16T18:40:28.451Z,9.46
2024-02-16T18:43:35.752Z,9.39
2024-02-16T18:46:45.336Z,9.35
2024-02-16T18:49:53.970Z,9.32
2024-02-16T18:53:02.138Z,9.26
2024-02-16T18:56:12.278Z,9.25
2024-02-16T18:59:20.367Z,9.16
2024-02-16T19:02:27.596Z,9.12
2024-02-16T19:05:35.791Z,9.10
2024-02-16T19:08:43.127Z,9.10
2024-02-16T19:11:53.906Z,9.13
2024-02-16T19:15:02.235Z,9.16
2024-02-16T19:18:11.841Z,9.16
2024-02-16T19:21:19.440Z,9.17
2024-02-16T19:24:33.501Z,9.16
2024-02-16T19:27:49.666Z,9.14
2024-02-16T19:30:57.851Z,9.16
2024-02-16T19:34:06.349Z,9.05
2024-02-16T19:37:14.518Z,9.08
2024-02-16T19:40:22.016Z,9.06
2024-02-16T19:43:33.103Z,9.02
2024-02-16T19:46:40.337Z,8.99
2024-02-16T19:49:48.563Z,8.88
2024-02-16T19:52:55.949Z,8.94
2024-02-16T19:56:04.360Z,8.89
2024-02-16T19:59:14.238Z,8.84
2024-02-16T20:02:22.285Z,8.77
2024-02-16T20:05:31.655Z,8.76
2024-02-16T20:08:39.702Z,8.72
2024-02-16T20:11:46.893Z,8.71
2024-02-16T20:14:57.566Z,8.66
2024-02-16T20:18:06.262Z,8.64
2024-02-16T20:21:15.883Z,8.60
2024-02-16T20:24:23.191Z,8.56
2024-02-16T20:27:31.712Z,8.54
2024-02-16T20:30:41.761Z,8.57
2024-02-16T20:33:50.259Z,8.59
2024-02-16T20:36:58.441Z,8.61
2024-02-16T20:40:07.529Z,8.54
2024-02-16T20:43:14.769Z,8.49
2024-02-16T20:46:25.482Z,8.53
2024-02-16T20:49:32.757Z,8.46
2024-02-16T20:52:40.924Z,8.42
2024-02-16T20:55:48.408Z,8.37
2024-02-16T20:58:56.719Z,8.40
2024-02-16T21:02:06.720Z,8.36
2024-02-16T21:05:15.453Z,8.33
2024-02-16T21:08:22.828Z,8.31
2024-02-16T21:11:31.020Z,8.31
2024-02-16T21:14:38.369Z,8.28
2024-02-16T21:17:49.587Z,8.29
2024-02-16T21:20:56.847Z,8.32
2024-02-16T21:24:05.501Z,8.32
2024-02-16T21:27:12.818Z,8.27
2024-02-16T21:30:21.195Z,8.20
2024-02-16T21:33:31.810Z,8.10
2024-02-16T21:36:40.119Z,7.98
2024-02-16T21:39:47.561Z,7.92
2024-02-16T21:42:55.683Z,7.74
2024-02-16T21:46:02.980Z,7.80
2024-02-16T21:49:13.998Z,7.79
2024-02-16T21:52:21.235Z,7.78
2024-02-16T21:55:29.367Z,7.72
2024-02-16T21:58:37.173Z,7.65
2024-02-16T22:01:45.343Z,7.58
2024-02-16T22:04:55.170Z,7.54
2024-02-16T22:08:04.751Z,7.52
2024-02-16T22:11:12.146Z,7.39
2024-02-16T22:14:20.145Z,7.43
2024-02-16T22:17:27.405Z,7.43
2024-02-16T22:20:38.213Z,7.43
2024-02-16T22:23:45.725Z,7.42
2024-02-16T22:26:54.829Z,7.39
2024-02-16T22:30:02.675Z,7.37
2024-02-16T22:33:10.990Z,7.36
2024-02-16T22:36:20.844Z,7.32
2024-02-16T22:39:28.934Z,7.31
2024-02-16T22:42:36.276Z,7.05
2024-02-16T22:45:44.540Z,7.27
2024-02-16T22:48:53.135Z,7.26
2024-02-16T22:52:04.842Z,7.26
2024-02-16T22:55:13.266Z,7.24
2024-02-16T22:58:21.464Z,7.26
2024-02-16T23:01:28.874Z,7.20
2024-02-16T23:04:36.875Z,7.21
2024-02-16T23:07:46.654Z,7.15
2024-02-16T23:10:54.993Z,7.16
2024-02-16T23:14:02.142Z,7.21
2024-02-16T23:17:10.320Z,7.23
2024-02-16T23:20:19.124Z,7.23
2024-02-16T23:23:29.822Z,7.20
2024-02-16T23:26:37.186Z,7.18
2024-02-16T23:29:45.176Z,7.23
2024-02-16T23:32:52.602Z,7.18
2024-02-16T23:36:00.821Z,7.18
2024-02-16T23:39:11.498Z,7.24
2024-02-16T23:42:19.584Z,7.25
2024-02-16T23:45:27.031Z,7.31
2024-02-16T23:48:35.248Z,7.38
2024-02-16T23:51:42.669Z,7.34
2024-02-16T23:54:53.381Z,7.26
2024-02-16T23:58:00.645Z,7.23
